createdAt,value
2023-01-03T00:02:07.595Z,6.43
2023-01-03T00:04:34.263Z,6.43
2023-01-03T00:07:00.783Z,6.43
2023-01-03T00:09:29.309Z,6.47
2023-01-03T00:12:14.229Z,6.50
2023-01-03T00:14:42.784Z,6.54
2023-01-03T00:17:10.280Z,6.59
2023-01-03T00:19:38.386Z,6.60
2023-01-03T00:22:05.236Z,6.62
2023-01-03T00:24:31.928Z,6.63
2023-01-03T00:26:58.388Z,6.63
2023-01-03T00:29:24.841Z,6.64
2023-01-03T00:31:51.335Z,6.64
2023-01-03T00:34:17.828Z,6.60
2023-01-03T00:36:44.450Z,6.50
2023-01-03T00:39:12.089Z,6.48
2023-01-03T00:41:39.150Z,6.50
2023-01-03T00:44:05.911Z,6.49
2023-01-03T00:46:32.589Z,6.51
2023-01-03T00:48:59.219Z,6.51
2023-01-03T00:51:26.901Z,6.50
2023-01-03T00:53:55.918Z,6.50
2023-01-03T00:56:23.476Z,6.50
2023-01-03T00:58:50.111Z,6.48
2023-01-03T01:01:18.283Z,6.45
2023-01-03T01:03:46.273Z,6.45
2023-01-03T01:06:17.378Z,6.45
2023-01-03T01:08:44.273Z,6.37
2023-01-03T01:11:11.690Z,6.28
2023-01-03T01:13:38.260Z,6.28
2023-01-03T01:16:06.779Z,6.26
2023-01-03T01:18:33.960Z,6.27
2023-01-03T01:21:00.539Z,6.22
2023-01-03T01:23:27.040Z,6.23
2023-01-03T01:25:53.564Z,6.22
2023-01-03T01:28:20.073Z,6.24
2023-01-03T01:30:46.546Z,6.24
2023-01-03T01:33:13.021Z,6.25
2023-01-03T01:35:39.737Z,6.27
2023-01-03T01:38:06.181Z,6.26
2023-01-03T01:40:32.779Z,6.24
2023-01-03T01:43:20.774Z,6.20
2023-01-03T01:45:47.526Z,6.24
2023-01-03T01:48:14.408Z,6.26
2023-01-03T01:50:43.573Z,6.26
2023-01-03T01:53:18.615Z,6.27
2023-01-03T01:55:50.710Z,6.29
2023-01-03T01:58:17.482Z,6.30
2023-01-03T02:00:44.624Z,6.31
2023-01-03T02:03:11.706Z,6.30
2023-01-03T02:05:40.055Z,6.24
2023-01-03T02:08:06.500Z,6.20
2023-01-03T02:10:51.593Z,6.21
2023-01-03T02:13:36.337Z,6.22
2023-01-03T02:16:12.180Z,6.23
2023-01-03T02:18:38.657Z,6.22
2023-01-03T02:21:05.044Z,6.22
2023-01-03T02:24:07.304Z,6.09
2023-01-03T02:26:41.847Z,6.08
2023-01-03T02:29:26.422Z,6.16
2023-01-03T02:31:57.824Z,6.22
2023-01-03T02:34:36.254Z,6.27
2023-01-03T02:37:02.654Z,6.30
2023-01-03T02:39:40.927Z,6.31
2023-01-03T02:42:32.492Z,6.32
2023-01-03T02:45:04.715Z,6.33
2023-01-03T02:47:35.966Z,6.32
2023-01-03T02:50:04.510Z,6.30
2023-01-03T02:52:31.976Z,6.32
2023-01-03T02:55:00.527Z,6.33
2023-01-03T02:57:29.999Z,6.30
2023-01-03T03:00:16.667Z,6.30
2023-01-03T03:02:46.712Z,6.30
2023-01-03T03:05:15.299Z,6.29
2023-01-03T03:07:41.828Z,6.31
2023-01-03T03:10:27.915Z,6.32
2023-01-03T03:13:15.465Z,6.27
2023-01-03T03:15:46.637Z,6.21
2023-01-03T03:18:16.653Z,6.21
2023-01-03T03:21:01.621Z,6.20
2023-01-03T03:23:49.202Z,6.20
2023-01-03T03:26:18.428Z,6.22
2023-01-03T03:28:48.364Z,6.25
2023-01-03T03:31:14.871Z,6.23
2023-01-03T03:33:44.428Z,6.26
2023-01-03T03:36:10.842Z,6.28
2023-01-03T03:38:38.784Z,6.30
2023-01-03T03:41:37.115Z,6.31
2023-01-03T03:44:37.726Z,6.31
2023-01-03T03:47:10.195Z,6.33
2023-01-03T03:49:38.272Z,6.30
2023-01-03T03:52:07.624Z,6.24
2023-01-03T03:54:36.317Z,6.24
2023-01-03T03:57:26.125Z,6.27
2023-01-03T03:59:56.351Z,6.29
2023-01-03T04:02:24.298Z,6.29
2023-01-03T04:04:54.143Z,6.23
2023-01-03T04:07:20.613Z,6.23
2023-01-03T04:09:47.069Z,6.25
2023-01-03T04:12:13.484Z,6.25
2023-01-03T04:14:39.935Z,6.20
2023-01-03T04:17:06.780Z,6.23
2023-01-03T04:19:33.331Z,6.23
2023-01-03T04:21:59.774Z,6.24
2023-01-03T04:24:26.245Z,6.26
2023-01-03T04:26:52.788Z,6.24
2023-01-03T04:29:19.233Z,6.25
2023-01-03T04:31:45.699Z,6.24
2023-01-03T04:34:12.187Z,6.25
2023-01-03T04:36:38.718Z,6.25
2023-01-03T04:39:05.169Z,6.24
2023-01-03T04:41:31.648Z,6.25
2023-01-03T04:44:04.794Z,6.22
2023-01-03T04:46:32.994Z,6.21
2023-01-03T04:48:59.970Z,6.20
2023-01-03T04:51:26.703Z,6.18
2023-01-03T04:53:53.434Z,6.17
2023-01-03T04:56:46.113Z,6.18
2023-01-03T04:59:12.562Z,6.15
2023-01-03T05:01:39.120Z,6.13
2023-01-03T05:04:05.690Z,6.11
2023-01-03T05:06:32.259Z,6.09
2023-01-03T05:08:58.773Z,6.10
2023-01-03T05:11:25.262Z,6.08
2023-01-03T05:13:51.701Z,6.08
2023-01-03T05:16:18.237Z,6.06
2023-01-03T05:18:44.901Z,6.06
2023-01-03T05:21:32.205Z,6.06
2023-01-03T05:24:16.899Z,6.05
2023-01-03T05:26:43.880Z,6.01
2023-01-03T05:29:11.697Z,5.99
2023-01-03T05:31:38.226Z,6.00
2023-01-03T05:34:04.870Z,6.00
2023-01-03T05:36:31.480Z,6.00
2023-01-03T05:38:57.957Z,5.95
2023-01-03T05:41:43.022Z,5.92
2023-01-03T05:44:09.457Z,5.90
2023-01-03T05:46:36.098Z,5.90
2023-01-03T05:49:02.629Z,5.89
2023-01-03T05:51:29.113Z,5.86
2023-01-03T05:53:55.564Z,5.86
2023-01-03T05:56:22.062Z,5.83
2023-01-03T05:58:49.202Z,5.82
2023-01-03T06:01:16.021Z,5.80
2023-01-03T06:03:46.687Z,5.78
2023-01-03T06:06:14.224Z,5.75
2023-01-03T06:08:41.267Z,5.72
2023-01-03T06:11:12.146Z,5.70
2023-01-03T06:13:38.996Z,5.70
2023-01-03T06:16:25.405Z,5.70
2023-01-03T06:18:51.982Z,5.64
2023-01-03T06:21:18.526Z,5.62
2023-01-03T06:23:47.772Z,5.61
2023-01-03T06:26:15.183Z,5.56
2023-01-03T06:28:41.707Z,5.49
2023-01-03T06:31:08.550Z,5.42
2023-01-03T06:33:35.369Z,5.41
2023-01-03T06:36:02.747Z,5.44
2023-01-03T06:38:29.175Z,5.42
2023-01-03T06:40:55.602Z,5.41
2023-01-03T06:43:22.109Z,5.44
2023-01-03T06:46:07.177Z,5.49
2023-01-03T06:48:52.370Z,5.52
2023-01-03T06:51:39.374Z,5.55
2023-01-03T06:54:07.159Z,5.58
2023-01-03T06:56:33.659Z,5.55
2023-01-03T06:59:00.089Z,5.47
2023-01-03T07:01:26.700Z,5.51
2023-01-03T07:03:53.366Z,5.46
2023-01-03T07:06:19.809Z,5.46
2023-01-03T07:08:48.684Z,5.46
2023-01-03T07:11:15.276Z,5.48
2023-01-03T07:14:00.149Z,5.50
2023-01-03T07:16:28.105Z,5.50
2023-01-03T07:18:55.690Z,5.51
2023-01-03T07:21:26.690Z,5.50
2023-01-03T07:23:53.999Z,5.53
2023-01-03T07:26:20.744Z,5.49
2023-01-03T07:28:47.312Z,5.52
2023-01-03T07:31:13.786Z,5.56
2023-01-03T07:33:40.268Z,5.56
2023-01-03T07:36:11.801Z,5.59
2023-01-03T07:38:39.313Z,5.62
2023-01-03T07:41:08.223Z,5.63
2023-01-03T07:43:38.455Z,5.66
2023-01-03T07:46:25.223Z,5.69
2023-01-03T07:48:52.704Z,5.72
2023-01-03T07:51:20.150Z,5.67
2023-01-03T07:53:46.579Z,5.67
2023-01-03T07:56:14.136Z,5.65
2023-01-03T07:58:41.418Z,5.65
2023-01-03T08:01:08.739Z,5.63
2023-01-03T08:03:36.216Z,5.69
2023-01-03T08:06:04.573Z,5.71
2023-01-03T08:08:31.287Z,5.75
2023-01-03T08:11:16.407Z,5.77
2023-01-03T08:13:42.912Z,5.76
2023-01-03T08:16:11.364Z,5.80
2023-01-03T08:18:38.770Z,5.79
2023-01-03T08:21:05.295Z,5.82
2023-01-03T08:23:31.719Z,5.84
2023-01-03T08:26:06.058Z,5.86
2023-01-03T08:28:32.815Z,5.85
2023-01-03T08:31:00.498Z,5.87
2023-01-03T08:33:28.011Z,5.79
2023-01-03T08:36:02.149Z,5.75
2023-01-03T08:38:35.139Z,5.76
2023-01-03T08:41:02.986Z,5.80
2023-01-03T08:43:33.211Z,5.84
2023-01-03T08:45:59.684Z,5.81
2023-01-03T08:48:26.247Z,5.82
2023-01-03T08:50:52.701Z,5.83
2023-01-03T08:53:19.202Z,5.82
2023-01-03T08:55:45.762Z,5.82
2023-01-03T08:58:12.217Z,5.85
2023-01-03T09:00:38.835Z,5.90
2023-01-03T09:03:05.576Z,5.96
2023-01-03T09:05:32.288Z,6.00
2023-01-03T09:07:58.971Z,5.98
2023-01-03T09:10:26.047Z,6.03
2023-01-03T09:12:52.575Z,6.07
2023-01-03T09:15:19.269Z,6.08
2023-01-03T09:17:47.388Z,6.08
2023-01-03T09:20:14.608Z,6.08
2023-01-03T09:22:41.175Z,6.05
2023-01-03T09:25:07.967Z,6.01
2023-01-03T09:27:34.742Z,6.00
2023-01-03T09:30:01.229Z,6.03
2023-01-03T09:32:27.716Z,6.09
2023-01-03T09:34:54.163Z,6.13
2023-01-03T09:37:20.624Z,6.11
2023-01-03T09:39:47.068Z,6.04
2023-01-03T09:42:40.656Z,6.05
2023-01-03T09:45:08.037Z,6.09
2023-01-03T09:47:36.231Z,6.14
2023-01-03T09:53:08.399Z,6.17
2023-01-03T09:55:59.649Z,6.13
2023-01-03T09:58:44.437Z,6.14
2023-01-03T10:01:36.824Z,6.06
2023-01-03T10:04:05.499Z,6.09
2023-01-03T10:06:47.466Z,6.14
2023-01-03T10:09:16.925Z,6.12
2023-01-03T10:12:19.035Z,6.13
2023-01-03T10:14:48.115Z,6.12
2023-01-03T10:17:14.539Z,6.17
2023-01-03T10:19:40.989Z,6.20
2023-01-03T10:22:12.923Z,6.22
2023-01-03T10:24:46.913Z,6.22
2023-01-03T10:27:13.774Z,6.28
2023-01-03T10:29:40.327Z,6.31
2023-01-03T10:32:19.104Z,6.32
2023-01-03T10:35:05.510Z,6.31
2023-01-03T10:37:31.952Z,6.33
2023-01-03T10:40:02.701Z,6.34
2023-01-03T10:42:31.070Z,6.36
2023-01-03T10:45:00.609Z,6.33
2023-01-03T10:47:27.374Z,6.37
2023-01-03T10:50:01.189Z,6.41
2023-01-03T10:52:47.948Z,6.51
2023-01-03T10:55:18.578Z,6.62
2023-01-03T10:57:48.655Z,6.65
2023-01-03T11:00:23.089Z,6.70
2023-01-03T11:02:50.465Z,6.74
2023-01-03T11:05:26.624Z,6.78
2023-01-03T11:07:53.069Z,6.82
2023-01-03T11:10:19.571Z,6.82
2023-01-03T11:12:49.229Z,6.84
2023-01-03T11:15:35.957Z,6.88
2023-01-03T11:18:06.660Z,6.91
2023-01-03T11:20:38.351Z,6.92
2023-01-03T11:23:08.729Z,6.96
2023-01-03T11:25:51.531Z,7.00
2023-01-03T11:28:20.702Z,7.05
2023-01-03T11:30:47.205Z,7.11
2023-01-03T11:33:35.135Z,7.12
2023-01-03T11:36:07.017Z,7.13
2023-01-03T11:38:39.681Z,7.15
2023-01-03T11:41:12.188Z,7.16
2023-01-03T11:43:50.974Z,7.17
2023-01-03T11:46:20.552Z,7.22
2023-01-03T11:48:49.816Z,7.23
2023-01-03T11:51:19.355Z,7.25
2023-01-03T11:54:05.398Z,7.24
2023-01-03T11:56:37.462Z,7.28
2023-01-03T11:59:10.411Z,7.34
2023-01-03T12:01:55.504Z,7.38
2023-01-03T12:04:49.779Z,7.41
2023-01-03T12:10:23.647Z,7.42
2023-01-03T12:12:53.141Z,7.44
2023-01-03T12:15:22.680Z,7.41
2023-01-03T12:17:58.334Z,7.44
2023-01-03T12:20:28.009Z,7.43
2023-01-03T12:22:57.716Z,7.41
2023-01-03T12:25:31.047Z,7.41
2023-01-03T12:27:57.517Z,7.45
2023-01-03T12:30:29.097Z,7.44
2023-01-03T12:32:57.136Z,7.49
2023-01-03T12:35:33.108Z,7.47
2023-01-03T12:37:59.511Z,7.45
2023-01-03T12:40:34.356Z,7.47
2023-01-03T12:43:10.179Z,7.50
2023-01-03T12:45:38.779Z,7.52
2023-01-03T12:48:20.244Z,7.52
2023-01-03T12:50:51.600Z,7.57
2023-01-03T12:53:26.143Z,7.55
2023-01-03T12:55:55.648Z,7.51
2023-01-03T12:58:41.981Z,7.52
2023-01-03T13:01:15.820Z,7.49
2023-01-03T13:03:45.893Z,7.49
2023-01-03T13:06:15.121Z,7.49
2023-01-03T13:08:41.588Z,7.53
2023-01-03T13:11:13.652Z,7.50
2023-01-03T13:13:48.319Z,7.50
2023-01-03T13:16:33.605Z,7.54
2023-01-03T13:19:18.695Z,7.46
2023-01-03T13:21:54.229Z,7.47
2023-01-03T13:24:39.371Z,7.44
2023-01-03T13:27:18.063Z,7.45
2023-01-03T13:29:53.969Z,7.52
2023-01-03T13:32:20.432Z,7.53
2023-01-03T13:34:59.055Z,7.54
2023-01-03T13:37:37.805Z,7.51
2023-01-03T13:40:13.533Z,7.53
2023-01-03T13:42:40.224Z,7.53
2023-01-03T13:45:15.912Z,7.56
2023-01-03T13:47:48.923Z,7.62
2023-01-03T13:50:22.602Z,7.66
2023-01-03T13:53:03.831Z,7.63
2023-01-03T13:55:33.118Z,7.68
2023-01-03T13:58:00.195Z,7.67
2023-01-03T14:00:27.099Z,7.63
2023-01-03T14:02:53.753Z,7.64
2023-01-03T14:05:46.870Z,7.58
2023-01-03T14:08:31.930Z,7.48
2023-01-03T14:11:20.377Z,7.42
2023-01-03T14:13:46.910Z,7.36
2023-01-03T14:16:27.840Z,7.40
2023-01-03T14:19:00.619Z,7.36
2023-01-03T14:21:31.287Z,7.35
2023-01-03T14:24:00.693Z,7.35
2023-01-03T14:26:28.384Z,7.36
2023-01-03T14:28:55.928Z,7.36
2023-01-03T14:31:24.240Z,7.38
2023-01-03T14:33:53.854Z,7.39
2023-01-03T14:36:20.370Z,7.38
2023-01-03T14:38:51.437Z,7.35
2023-01-03T14:41:26.250Z,7.35
2023-01-03T14:44:18.781Z,7.35
2023-01-03T14:46:53.430Z,7.36
2023-01-03T14:49:20.017Z,7.35
2023-01-03T14:51:46.783Z,7.38
2023-01-03T14:54:16.531Z,7.40
2023-01-03T14:56:44.916Z,7.37
2023-01-03T14:59:13.281Z,7.31
2023-01-03T15:01:39.999Z,7.28
2023-01-03T15:04:06.659Z,7.26
2023-01-03T15:06:33.204Z,7.14
2023-01-03T15:09:01.612Z,7.13
2023-01-03T15:11:33.268Z,7.11
2023-01-03T15:13:59.735Z,7.08
2023-01-03T15:16:26.851Z,6.95
2023-01-03T15:19:01.148Z,6.94
2023-01-03T15:21:29.340Z,6.92
2023-01-03T15:23:56.430Z,6.88
2023-01-03T15:26:27.846Z,6.81
2023-01-03T15:29:14.605Z,6.79
2023-01-03T15:31:46.881Z,6.78
2023-01-03T15:34:20.486Z,6.77
2023-01-03T15:37:07.173Z,6.75
2023-01-03T15:39:45.062Z,6.73
2023-01-03T15:42:44.545Z,6.66
2023-01-03T15:45:15.802Z,6.64
2023-01-03T15:47:42.943Z,6.62
2023-01-03T15:50:18.819Z,6.58
2023-01-03T15:52:46.048Z,6.56
2023-01-03T15:55:12.953Z,6.56
2023-01-03T15:57:39.576Z,6.55
2023-01-03T16:00:08.313Z,6.54
2023-01-03T16:02:35.026Z,6.54
2023-01-03T16:05:01.723Z,6.52
2023-01-03T16:07:28.187Z,6.49
2023-01-03T16:09:54.624Z,6.48
2023-01-03T16:12:22.636Z,6.44
2023-01-03T16:14:50.997Z,6.42
2023-01-03T16:17:24.594Z,6.39
2023-01-03T16:19:51.482Z,6.36
2023-01-03T16:22:35.762Z,6.34
2023-01-03T16:25:03.511Z,6.31
2023-01-03T16:27:29.941Z,6.29
2023-01-03T16:29:56.411Z,6.28
2023-01-03T16:32:24.734Z,6.24
2023-01-03T16:34:51.424Z,6.21
2023-01-03T16:37:17.854Z,6.18
2023-01-03T16:39:48.332Z,6.17
2023-01-03T16:42:15.612Z,6.18
2023-01-03T16:44:43.246Z,6.18
2023-01-03T16:47:30.879Z,6.16
2023-01-03T16:50:02.514Z,6.15
2023-01-03T16:52:33.271Z,6.11
2023-01-03T16:55:13.090Z,6.08
2023-01-03T16:57:39.537Z,6.04
2023-01-03T17:00:14.161Z,6.01
2023-01-03T17:02:40.668Z,6.00
2023-01-03T17:05:07.333Z,5.97
2023-01-03T17:07:33.806Z,5.96
2023-01-03T17:10:00.332Z,5.93
2023-01-03T17:12:26.898Z,5.84
2023-01-03T17:14:53.411Z,5.78
2023-01-03T17:17:21.044Z,5.81
2023-01-03T17:20:05.289Z,5.83
2023-01-03T17:22:32.518Z,5.82
2023-01-03T17:24:59.012Z,5.81
2023-01-03T17:27:32.090Z,5.79
2023-01-03T17:30:01.847Z,5.79
2023-01-03T17:32:28.587Z,5.77
2023-01-03T17:34:55.023Z,5.77
2023-01-03T17:37:21.930Z,5.77
2023-01-03T17:39:56.231Z,5.74
2023-01-03T17:42:23.511Z,5.73
2023-01-03T17:45:08.829Z,5.68
2023-01-03T17:48:01.026Z,5.69
2023-01-03T17:50:29.280Z,5.69
2023-01-03T17:52:56.589Z,5.66
2023-01-03T17:55:30.096Z,5.63
2023-01-03T17:57:57.329Z,5.62
2023-01-03T18:00:27.565Z,5.56
2023-01-03T18:02:54.749Z,5.53
2023-01-03T18:05:27.550Z,5.50
2023-01-03T18:07:58.672Z,5.46
2023-01-03T18:10:41.822Z,5.46
2023-01-03T18:13:19.865Z,5.43
2023-01-03T18:15:46.415Z,5.41
2023-01-03T18:18:15.259Z,5.39
2023-01-03T18:20:41.807Z,5.37
2023-01-03T18:23:31.444Z,5.36
2023-01-03T18:26:10.289Z,5.32
2023-01-03T18:28:36.723Z,5.31
2023-01-03T18:31:03.246Z,5.29
2023-01-03T18:33:29.775Z,5.26
2023-01-03T18:35:56.316Z,5.24
2023-01-03T18:38:25.433Z,5.25
2023-01-03T18:40:54.167Z,5.23
2023-01-03T18:43:23.887Z,5.21
2023-01-03T18:45:50.895Z,5.20
2023-01-03T18:48:18.637Z,5.21
2023-01-03T18:50:46.782Z,5.22
2023-01-03T18:53:18.058Z,5.15
2023-01-03T18:55:44.839Z,5.11
2023-01-03T18:58:23.303Z,5.09
2023-01-03T19:00:49.726Z,5.10
2023-01-03T19:03:24.518Z,5.08
2023-01-03T19:05:51.894Z,4.95
2023-01-03T19:08:19.643Z,4.82
2023-01-03T19:10:46.378Z,4.84
2023-01-03T19:13:22.771Z,4.84
2023-01-03T19:15:49.328Z,4.88
2023-01-03T19:18:16.266Z,4.87
2023-01-03T19:20:42.931Z,4.85
2023-01-03T19:23:09.479Z,4.82
2023-01-03T19:25:35.976Z,4.77
2023-01-03T19:28:04.404Z,4.73
2023-01-03T19:30:37.514Z,4.76
2023-01-03T19:33:05.400Z,4.79
2023-01-03T19:35:31.835Z,4.78
2023-01-03T19:37:58.327Z,4.81
2023-01-03T19:40:27.303Z,4.79
2023-01-03T19:42:55.425Z,4.75
2023-01-03T19:45:21.921Z,4.73
2023-01-03T19:47:48.381Z,4.73
2023-01-03T19:50:22.467Z,4.72
2023-01-03T19:52:49.146Z,4.65
2023-01-03T19:55:16.207Z,4.61
2023-01-03T19:57:43.681Z,4.49
2023-01-03T20:00:16.397Z,4.48
2023-01-03T20:02:43.115Z,4.45
2023-01-03T20:05:21.455Z,4.46
2023-01-03T20:07:48.952Z,4.47
2023-01-03T20:10:16.693Z,4.42
2023-01-03T20:12:43.160Z,4.41
2023-01-03T20:15:18.372Z,4.40
2023-01-03T20:17:44.849Z,4.40
2023-01-03T20:20:11.910Z,4.35
2023-01-03T20:23:04.136Z,4.33
2023-01-03T20:25:32.157Z,4.31
2023-01-03T20:27:59.110Z,4.32
2023-01-03T20:30:27.039Z,4.29
2023-01-03T20:32:53.557Z,4.19
2023-01-03T20:38:10.664Z,4.04
2023-01-03T20:40:37.203Z,3.99
2023-01-03T20:43:05.452Z,4.05
2023-01-03T20:45:32.335Z,4.05
2023-01-03T20:47:59.488Z,4.04
2023-01-03T20:50:27.184Z,4.02
2023-01-03T20:52:53.971Z,4.01
2023-01-03T20:55:21.712Z,3.99
2023-01-03T20:57:48.745Z,3.99
2023-01-03T21:00:29.817Z,3.97
2023-01-03T21:02:56.454Z,3.77
2023-01-03T21:05:23.416Z,3.77
2023-01-03T21:08:08.995Z,3.76
2023-01-03T21:10:39.589Z,3.78
2023-01-03T21:13:06.595Z,3.83
2023-01-03T21:15:33.624Z,3.70
2023-01-03T21:18:00.462Z,3.71
2023-01-03T21:20:28.583Z,3.75
2023-01-03T21:22:55.097Z,3.77
2023-01-03T21:25:24.599Z,3.69
2023-01-03T21:27:51.133Z,3.70
2023-01-03T21:30:18.620Z,3.68
2023-01-03T21:32:45.452Z,3.70
2023-01-03T21:35:16.155Z,3.70
2023-01-03T21:37:43.114Z,3.68
2023-01-03T21:40:19.712Z,3.69
2023-01-03T21:43:05.746Z,3.69
2023-01-03T21:45:40.450Z,3.67
2023-01-03T21:48:09.246Z,3.68
2023-01-03T21:50:38.050Z,3.55
2023-01-03T21:53:04.697Z,3.54
2023-01-03T21:55:31.388Z,3.55
2023-01-03T21:57:58.165Z,3.54
2023-01-03T22:00:24.752Z,3.50
2023-01-03T22:03:09.962Z,3.48
2023-01-03T22:05:36.427Z,3.43
2023-01-03T22:08:02.974Z,3.41
2023-01-03T22:10:30.354Z,3.39
2023-01-03T22:12:56.846Z,3.23
2023-01-03T22:15:24.619Z,3.21
2023-01-03T22:17:51.319Z,3.25
2023-01-03T22:20:18.526Z,3.24
2023-01-03T22:22:45.380Z,3.23
2023-01-03T22:25:13.552Z,3.23
2023-01-03T22:27:40.006Z,3.26
2023-01-03T22:30:07.483Z,3.28
2023-01-03T22:32:34.219Z,3.30
2023-01-03T22:35:00.712Z,3.29
2023-01-03T22:37:27.170Z,3.28
2023-01-03T22:39:53.709Z,3.13
2023-01-03T22:42:20.297Z,3.13
2023-01-03T22:44:46.757Z,3.18
2023-01-03T22:47:13.240Z,3.13
2023-01-03T22:49:40.140Z,3.12
2023-01-03T22:52:06.742Z,3.15
2023-01-03T22:54:35.250Z,3.17
2023-01-03T22:57:02.281Z,3.13
2023-01-03T22:59:30.391Z,3.13
2023-01-03T23:01:57.617Z,3.12
2023-01-03T23:04:26.353Z,3.11
2023-01-03T23:06:53.892Z,3.08
2023-01-03T23:09:20.922Z,3.06
2023-01-03T23:12:06.231Z,3.03
2023-01-03T23:14:32.821Z,3.06
2023-01-03T23:17:19.685Z,3.11
2023-01-03T23:19:46.655Z,3.10
2023-01-03T23:22:13.161Z,3.12
2023-01-03T23:24:39.685Z,3.12
2023-01-03T23:27:06.358Z,3.07
2023-01-03T23:29:32.937Z,3.03
2023-01-03T23:32:00.683Z,2.98
2023-01-03T23:34:27.102Z,2.98
2023-01-03T23:36:53.544Z,2.97
2023-01-03T23:39:20.063Z,2.95
2023-01-03T23:41:46.778Z,2.97
2023-01-03T23:44:13.255Z,2.98
2023-01-03T23:46:40.071Z,2.91
2023-01-03T23:49:06.591Z,2.94
2023-01-03T23:51:33.066Z,2.98
2023-01-03T23:53:59.542Z,3.00
2023-01-03T23:56:26.009Z,3.00
2023-01-03T23:58:52.852Z,3.00
